createdAt,value
2022-12-20T00:01:24.784Z,2.90
2022-12-20T00:03:53.534Z,3.10
2022-12-20T00:06:21.498Z,3.50
2022-12-20T00:08:57.281Z,3.15
2022-12-20T00:11:24.785Z,3.10
2022-12-20T00:13:52.096Z,3.33
2022-12-20T00:16:22.288Z,3.13
2022-12-20T00:18:55.294Z,3.05
2022-12-20T00:21:22.811Z,3.20
2022-12-20T00:23:49.761Z,3.28
2022-12-20T00:26:18.605Z,3.40
2022-12-20T00:28:45.751Z,3.35
2022-12-20T00:31:14.738Z,3.30
2022-12-20T00:33:44.657Z,3.30
2022-12-20T00:36:11.489Z,2.60
2022-12-20T00:38:38.632Z,3.20
2022-12-20T00:41:10.656Z,2.95
2022-12-20T00:43:38.582Z,3.58
2022-12-20T00:46:06.785Z,3.60
2022-12-20T00:48:34.202Z,3.60
2022-12-20T00:51:06.423Z,3.03
2022-12-20T00:53:34.641Z,3.13
2022-12-20T00:56:01.693Z,3.15
2022-12-20T00:58:28.673Z,2.90
2022-12-20T01:00:57.415Z,3.00
2022-12-20T01:03:25.701Z,3.00
2022-12-20T01:05:53.706Z,2.55
2022-12-20T01:08:21.160Z,2.90
2022-12-20T01:10:57.735Z,3.53
2022-12-20T01:13:24.984Z,3.13
2022-12-20T01:15:51.658Z,2.50
2022-12-20T01:18:18.476Z,3.17
2022-12-20T01:20:45.114Z,2.92
2022-12-20T01:23:11.837Z,2.75
2022-12-20T01:25:38.704Z,2.80
2022-12-20T01:28:05.416Z,3.00
2022-12-20T01:30:32.144Z,3.55
2022-12-20T01:32:58.906Z,2.75
2022-12-20T01:35:25.592Z,3.70
2022-12-20T01:37:52.563Z,3.10
2022-12-20T01:40:19.649Z,2.90
2022-12-20T01:42:46.810Z,3.08
2022-12-20T01:45:28.846Z,2.90
2022-12-20T01:47:57.603Z,2.97
2022-12-20T01:50:24.892Z,2.60
2022-12-20T01:52:52.675Z,3.03
2022-12-20T01:55:27.485Z,3.08
2022-12-20T01:57:56.862Z,3.03
2022-12-20T02:00:24.032Z,2.70
2022-12-20T02:02:51.486Z,2.50
2022-12-20T02:05:21.004Z,2.90
2022-12-20T02:07:50.206Z,2.55
2022-12-20T02:10:18.916Z,3.08
2022-12-20T02:12:46.975Z,2.50
2022-12-20T02:15:25.137Z,2.67
2022-12-20T02:18:22.235Z,2.67
2022-12-20T02:20:55.345Z,2.92
2022-12-20T02:23:49.544Z,2.78
2022-12-20T02:26:34.974Z,2.40
2022-12-20T02:29:19.786Z,2.67
2022-12-20T02:32:06.748Z,2.60
2022-12-20T02:34:35.642Z,2.90
2022-12-20T02:37:02.392Z,2.40
2022-12-20T02:39:32.002Z,2.60
2022-12-20T02:42:09.343Z,2.67
2022-12-20T02:44:58.067Z,2.80
2022-12-20T02:47:30.877Z,2.85
2022-12-20T02:49:58.057Z,2.88
2022-12-20T02:52:27.596Z,2.58
2022-12-20T02:54:55.596Z,2.42
2022-12-20T02:57:45.597Z,2.38
2022-12-20T03:00:16.425Z,2.67
2022-12-20T03:03:04.374Z,2.40
2022-12-20T03:05:34.425Z,3.13
2022-12-20T03:08:02.125Z,2.40
2022-12-20T03:10:29.118Z,2.92
2022-12-20T03:12:55.845Z,3.15
2022-12-20T03:15:23.512Z,2.97
2022-12-20T03:17:53.337Z,2.83
2022-12-20T03:20:20.089Z,3.03
2022-12-20T03:22:46.778Z,2.72
2022-12-20T03:25:13.686Z,2.67
2022-12-20T03:27:40.528Z,2.80
2022-12-20T03:30:10.212Z,3.05
2022-12-20T03:32:38.145Z,2.95
2022-12-20T03:35:06.273Z,3.75
2022-12-20T03:37:37.378Z,3.17
2022-12-20T03:40:06.083Z,3.45
2022-12-20T03:42:33.420Z,3.38
2022-12-20T03:45:00.443Z,3.53
2022-12-20T03:47:29.674Z,3.47
2022-12-20T03:49:57.555Z,3.50
2022-12-20T03:52:24.607Z,3.45
2022-12-20T03:54:51.537Z,3.70
2022-12-20T03:57:27.208Z,3.72
2022-12-20T03:59:55.970Z,4.10
2022-12-20T04:02:23.171Z,3.78
2022-12-20T04:04:50.979Z,3.53
2022-12-20T04:07:18.222Z,3.45
2022-12-20T04:09:46.824Z,3.78
2022-12-20T04:12:16.281Z,3.78
2022-12-20T04:14:43.659Z,4.15
2022-12-20T04:17:11.098Z,3.65
2022-12-20T04:19:37.867Z,4.10
2022-12-20T04:22:06.548Z,4.30
2022-12-20T04:24:47.773Z,3.92
2022-12-20T04:27:22.078Z,4.13
2022-12-20T04:29:50.723Z,3.75
2022-12-20T04:32:19.395Z,3.65
2022-12-20T04:34:46.114Z,4.15
2022-12-20T04:37:13.051Z,4.05
2022-12-20T04:39:51.028Z,3.70
2022-12-20T04:42:21.104Z,3.83
2022-12-20T04:44:49.094Z,3.78
2022-12-20T04:47:21.127Z,3.67
2022-12-20T04:49:47.908Z,4.18
2022-12-20T04:52:33.183Z,3.42
2022-12-20T04:54:59.980Z,3.88
2022-12-20T04:57:30.693Z,3.60
2022-12-20T04:59:58.525Z,3.70
2022-12-20T05:02:25.516Z,3.85
2022-12-20T05:05:01.442Z,3.55
2022-12-20T05:07:32.164Z,3.25
2022-12-20T05:09:58.877Z,3.83
2022-12-20T05:12:26.287Z,3.53
2022-12-20T05:14:56.566Z,3.25
2022-12-20T05:17:23.293Z,3.72
2022-12-20T05:19:50.104Z,3.67
2022-12-20T05:22:35.625Z,3.08
2022-12-20T05:25:26.122Z,3.35
2022-12-20T05:27:54.717Z,2.92
2022-12-20T05:30:25.451Z,3.78
2022-12-20T05:32:52.440Z,2.83
2022-12-20T05:35:19.812Z,3.05
2022-12-20T05:37:51.032Z,3.05
2022-12-20T05:40:20.026Z,3.13
2022-12-20T05:42:46.813Z,2.90
2022-12-20T05:45:17.353Z,3.15
2022-12-20T05:47:50.803Z,3.22
2022-12-20T05:50:19.115Z,3.13
2022-12-20T05:53:11.048Z,2.67
2022-12-20T05:56:01.369Z,3.38
2022-12-20T05:58:34.095Z,3.17
2022-12-20T06:01:05.538Z,3.00
2022-12-20T06:03:37.670Z,3.10
2022-12-20T06:06:13.931Z,3.10
2022-12-20T06:08:42.415Z,2.88
2022-12-20T06:13:50.016Z,2.67
2022-12-20T06:16:19.478Z,3.10
2022-12-20T06:18:46.803Z,3.38
2022-12-20T06:21:13.768Z,3.17
2022-12-20T06:23:40.502Z,3.10
2022-12-20T06:26:10.690Z,2.92
2022-12-20T06:28:46.247Z,2.85
2022-12-20T06:31:14.000Z,3.33
2022-12-20T06:33:48.077Z,3.60
2022-12-20T06:36:16.656Z,2.53
2022-12-20T06:38:43.682Z,3.03
2022-12-20T06:41:10.396Z,3.25
2022-12-20T06:43:37.447Z,3.53
2022-12-20T06:46:04.305Z,3.10
2022-12-20T06:48:30.971Z,2.90
2022-12-20T06:50:58.027Z,3.38
2022-12-20T06:53:26.716Z,3.25
2022-12-20T06:55:53.904Z,3.85
2022-12-20T06:58:21.526Z,3.63
2022-12-20T07:00:49.520Z,3.47
2022-12-20T07:03:16.568Z,3.70
2022-12-20T07:05:43.507Z,3.53
2022-12-20T07:08:10.221Z,3.83
2022-12-20T07:10:37.531Z,3.92
2022-12-20T07:13:04.173Z,3.97
2022-12-20T07:15:31.441Z,4.93
2022-12-20T07:17:59.323Z,4.35
2022-12-20T07:20:26.127Z,4.53
2022-12-20T07:22:53.257Z,4.45
2022-12-20T07:25:20.108Z,4.63
2022-12-20T07:27:49.784Z,4.65
2022-12-20T07:30:17.472Z,4.32
2022-12-20T07:32:44.191Z,4.80
2022-12-20T07:35:12.337Z,4.35
2022-12-20T07:37:39.022Z,4.28
2022-12-20T07:40:07.033Z,4.68
2022-12-20T07:42:38.052Z,4.47
2022-12-20T07:45:07.788Z,4.72
2022-12-20T07:47:35.826Z,4.60
2022-12-20T07:50:03.338Z,4.05
2022-12-20T07:52:32.843Z,3.72
2022-12-20T07:55:03.795Z,3.80
2022-12-20T07:57:49.324Z,3.60
2022-12-20T08:00:18.537Z,3.42
2022-12-20T08:02:52.943Z,3.72
2022-12-20T08:05:20.030Z,3.70
2022-12-20T08:07:51.056Z,3.53
2022-12-20T08:10:20.677Z,3.80
2022-12-20T08:12:48.753Z,3.40
2022-12-20T08:15:16.136Z,3.63
2022-12-20T08:17:45.217Z,3.13
2022-12-20T08:20:12.265Z,3.25
2022-12-20T08:22:38.986Z,3.17
2022-12-20T08:25:06.293Z,3.13
2022-12-20T08:27:33.775Z,3.00
2022-12-20T08:30:00.643Z,3.03
2022-12-20T08:32:27.563Z,2.90
2022-12-20T08:34:55.483Z,3.08
2022-12-20T08:37:22.314Z,3.17
2022-12-20T08:39:49.819Z,3.33
2022-12-20T08:42:16.508Z,3.33
2022-12-20T08:44:44.009Z,3.40
2022-12-20T08:47:10.723Z,3.45
2022-12-20T08:49:41.133Z,2.88
2022-12-20T08:52:10.893Z,2.67
2022-12-20T08:54:37.620Z,2.88
2022-12-20T08:57:04.401Z,2.90
2022-12-20T08:59:31.079Z,3.17
2022-12-20T09:01:58.117Z,2.80
2022-12-20T09:04:25.143Z,3.38
2022-12-20T09:06:52.046Z,2.42
2022-12-20T09:09:18.886Z,2.75
2022-12-20T09:11:45.604Z,3.58
2022-12-20T09:14:12.266Z,2.92
2022-12-20T09:16:39.068Z,2.97
2022-12-20T09:19:06.655Z,3.13
2022-12-20T09:21:34.885Z,3.17
2022-12-20T09:24:01.773Z,2.60
2022-12-20T09:26:28.574Z,2.35
2022-12-20T09:28:55.370Z,2.78
2022-12-20T09:31:24.801Z,3.05
2022-12-20T09:33:59.337Z,2.55
2022-12-20T09:36:27.810Z,2.88
2022-12-20T09:38:55.315Z,3.83
2022-12-20T09:41:37.298Z,2.70
2022-12-20T09:44:27.236Z,2.22
2022-12-20T09:47:18.031Z,3.08
2022-12-20T09:49:48.094Z,2.20
2022-12-20T09:52:35.605Z,2.67
2022-12-20T09:55:13.841Z,2.75
2022-12-20T09:58:17.351Z,2.55
2022-12-20T10:00:53.509Z,2.72
2022-12-20T10:03:29.498Z,2.65
2022-12-20T10:06:00.326Z,2.83
2022-12-20T10:08:47.824Z,3.08
2022-12-20T10:11:21.198Z,2.83
2022-12-20T10:14:34.147Z,2.90
2022-12-20T10:17:17.664Z,2.60
2022-12-20T10:20:02.156Z,3.28
2022-12-20T10:22:50.626Z,2.75
2022-12-20T10:25:30.075Z,2.92
2022-12-20T10:28:11.501Z,4.22
2022-12-20T10:31:26.699Z,3.50
2022-12-20T10:38:32.060Z,3.25
2022-12-20T10:44:53.661Z,3.05
2022-12-20T10:47:25.909Z,3.85
2022-12-20T10:49:52.740Z,3.42
2022-12-20T10:52:20.009Z,3.95
2022-12-20T10:54:47.516Z,3.28
2022-12-20T10:57:29.215Z,3.60
2022-12-20T10:59:57.464Z,3.70
2022-12-20T11:02:24.333Z,3.63
2022-12-20T11:05:01.020Z,3.40
2022-12-20T11:07:33.892Z,3.63
2022-12-20T11:12:28.899Z,3.53
2022-12-20T11:15:19.236Z,3.30
2022-12-20T11:17:50.306Z,3.97
2022-12-20T11:20:38.161Z,4.05
2022-12-20T11:23:42.092Z,3.70
2022-12-20T11:26:38.945Z,4.07
2022-12-20T11:29:20.137Z,3.53
2022-12-20T11:32:08.703Z,3.63
2022-12-20T11:35:15.327Z,3.58
2022-12-20T11:38:18.087Z,3.70
2022-12-20T11:41:09.666Z,4.13
2022-12-20T11:44:24.477Z,4.03
2022-12-20T11:47:25.124Z,4.07
2022-12-20T11:50:09.981Z,3.90
2022-12-20T11:52:43.420Z,4.15
2022-12-20T11:55:12.974Z,3.85
2022-12-20T11:58:19.593Z,4.95
2022-12-20T12:00:58.233Z,4.57
2022-12-20T12:03:34.572Z,3.78
2022-12-20T12:06:23.397Z,4.38
2022-12-20T12:09:10.996Z,3.55
2022-12-20T12:12:06.607Z,4.45
2022-12-20T12:15:14.329Z,3.88
2022-12-20T12:17:52.238Z,4.18
2022-12-20T12:20:31.274Z,4.25
2022-12-20T12:23:31.402Z,4.32
2022-12-20T12:26:05.800Z,4.28
2022-12-20T12:28:34.089Z,4.68
2022-12-20T12:31:07.383Z,4.47
2022-12-20T12:33:42.355Z,4.43
2022-12-20T12:36:32.341Z,4.43
2022-12-20T12:39:22.471Z,4.43
2022-12-20T12:42:31.057Z,4.00
2022-12-20T12:45:24.869Z,4.63
2022-12-20T12:47:56.536Z,4.47
2022-12-20T12:50:33.660Z,4.55
2022-12-20T12:53:08.776Z,4.22
2022-12-20T12:55:36.896Z,5.15
2022-12-20T12:58:15.737Z,5.15
2022-12-20T13:00:55.720Z,4.53
2022-12-20T13:03:37.973Z,5.18
2022-12-20T13:06:36.980Z,4.80
2022-12-20T13:09:03.591Z,5.00
2022-12-20T13:11:46.184Z,5.05
2022-12-20T13:14:22.973Z,4.78
2022-12-20T13:17:12.045Z,4.38
2022-12-20T13:19:53.250Z,5.05
2022-12-20T13:22:25.156Z,5.15
2022-12-20T13:25:28.978Z,4.72
2022-12-20T13:28:16.636Z,4.93
2022-12-20T13:30:45.454Z,5.28
2022-12-20T13:33:24.061Z,5.15
2022-12-20T13:36:03.765Z,4.47
2022-12-20T13:38:30.468Z,5.32
2022-12-20T13:41:01.670Z,4.95
2022-12-20T13:43:47.986Z,5.10
2022-12-20T13:46:37.899Z,6.40
2022-12-20T13:49:09.323Z,5.20
2022-12-20T13:51:36.190Z,5.07
2022-12-20T13:54:06.526Z,5.13
2022-12-20T13:56:44.928Z,5.95
2022-12-20T13:59:31.689Z,5.50
2022-12-20T14:02:02.045Z,4.95
2022-12-20T14:04:41.316Z,5.25
2022-12-20T14:07:12.563Z,6.00
2022-12-20T14:09:39.531Z,4.80
2022-12-20T14:12:12.597Z,5.50
2022-12-20T14:14:44.394Z,5.25
2022-12-20T14:17:29.027Z,5.53
2022-12-20T14:20:16.663Z,5.85
2022-12-20T14:22:50.305Z,5.82
2022-12-20T14:25:21.988Z,5.75
2022-12-20T14:27:49.263Z,5.50
2022-12-20T14:30:31.943Z,5.30
2022-12-20T14:32:59.463Z,5.45
2022-12-20T14:35:27.131Z,5.75
2022-12-20T14:37:57.070Z,5.90
2022-12-20T14:40:24.407Z,5.63
2022-12-20T14:42:51.361Z,6.28
2022-12-20T14:45:24.118Z,5.78
2022-12-20T14:48:15.345Z,5.50
2022-12-20T14:50:52.698Z,6.20
2022-12-20T14:53:27.463Z,6.25
2022-12-20T14:55:54.715Z,5.95
2022-12-20T14:58:30.049Z,6.43
2022-12-20T15:01:17.923Z,6.00
2022-12-20T15:04:00.537Z,6.30
2022-12-20T15:06:33.276Z,5.80
2022-12-20T15:11:26.825Z,5.68
2022-12-20T15:13:55.487Z,6.78
2022-12-20T15:16:24.611Z,6.50
2022-12-20T15:18:54.561Z,6.43
2022-12-20T15:21:42.704Z,6.45
2022-12-20T15:24:15.202Z,6.68
2022-12-20T15:26:42.334Z,6.65
2022-12-20T15:29:17.398Z,6.60
2022-12-20T15:31:46.217Z,6.72
2022-12-20T15:34:25.376Z,6.13
2022-12-20T15:36:52.431Z,6.97
2022-12-20T15:39:20.260Z,6.90
2022-12-20T15:41:49.296Z,6.10
2022-12-20T15:44:28.347Z,6.18
2022-12-20T15:46:55.127Z,5.93
2022-12-20T15:49:24.846Z,6.28
2022-12-20T15:51:53.637Z,6.80
2022-12-20T15:54:27.943Z,7.00
2022-12-20T15:56:56.403Z,6.30
2022-12-20T16:02:36.227Z,6.72
2022-12-20T16:05:03.449Z,6.72
2022-12-20T16:07:30.259Z,6.45
2022-12-20T16:09:57.071Z,7.07
2022-12-20T16:12:28.077Z,6.55
2022-12-20T16:14:55.203Z,7.18
2022-12-20T16:17:22.040Z,7.57
2022-12-20T16:19:48.744Z,7.47
2022-12-20T16:22:22.069Z,7.25
2022-12-20T16:24:49.280Z,7.28
2022-12-20T16:27:16.006Z,7.57
2022-12-20T16:29:42.743Z,7.50
2022-12-20T16:32:17.601Z,7.43
2022-12-20T16:34:45.487Z,7.63
2022-12-20T16:37:12.446Z,8.55
2022-12-20T16:39:39.267Z,8.23
2022-12-20T16:42:17.014Z,7.78
2022-12-20T16:44:45.878Z,8.65
2022-12-20T16:47:14.177Z,8.00
2022-12-20T16:49:44.619Z,8.68
2022-12-20T16:52:18.569Z,9.20
2022-12-20T16:54:45.447Z,8.50
2022-12-20T16:57:12.190Z,8.32
2022-12-20T16:59:38.882Z,9.10
2022-12-20T17:02:21.756Z,8.18
2022-12-20T17:04:48.639Z,8.95
2022-12-20T17:07:16.229Z,9.45
2022-12-20T17:09:48.798Z,8.73
2022-12-20T17:14:43.686Z,9.23
2022-12-20T17:17:10.969Z,9.55
2022-12-20T17:19:37.748Z,8.75
2022-12-20T17:24:49.929Z,9.25
2022-12-20T17:27:16.804Z,9.18
2022-12-20T17:29:43.856Z,9.27
2022-12-20T17:32:20.722Z,9.15
2022-12-20T17:34:47.642Z,8.80
2022-12-20T17:37:14.711Z,9.10
2022-12-20T17:39:41.511Z,9.13
2022-12-20T17:42:12.773Z,8.90
2022-12-20T17:44:39.574Z,9.73
2022-12-20T17:47:06.625Z,8.82
2022-12-20T17:49:33.567Z,9.40
2022-12-20T17:52:00.477Z,8.82
2022-12-20T17:54:34.839Z,9.68
2022-12-20T17:57:03.600Z,9.23
2022-12-20T17:59:30.643Z,8.13
2022-12-20T18:01:57.671Z,8.32
2022-12-20T18:04:24.725Z,8.68
2022-12-20T18:06:52.130Z,8.25
2022-12-20T18:09:20.725Z,8.30
2022-12-20T18:11:48.661Z,7.93
2022-12-20T18:14:15.912Z,8.70
2022-12-20T18:16:42.819Z,9.07
2022-12-20T18:19:16.594Z,7.70
2022-12-20T18:21:43.519Z,8.52
2022-12-20T18:24:15.889Z,8.18
2022-12-20T18:26:43.568Z,8.27
2022-12-20T18:29:11.033Z,7.45
2022-12-20T18:31:38.174Z,7.22
2022-12-20T18:34:05.297Z,7.85
2022-12-20T18:36:34.851Z,8.50
2022-12-20T18:39:04.224Z,7.65
2022-12-20T18:41:31.332Z,8.02
2022-12-20T18:44:03.590Z,8.75
2022-12-20T18:46:30.711Z,8.18
2022-12-20T18:48:59.493Z,7.50
2022-12-20T18:51:29.226Z,7.60
2022-12-20T18:53:57.608Z,7.53
2022-12-20T18:56:26.879Z,8.38
2022-12-20T18:58:53.590Z,8.73
2022-12-20T19:01:24.108Z,8.27
2022-12-20T19:03:52.297Z,9.15
2022-12-20T19:06:19.758Z,8.70
2022-12-20T19:08:47.281Z,9.45
2022-12-20T19:11:16.932Z,8.90
2022-12-20T19:13:44.680Z,10.38
2022-12-20T19:16:17.109Z,9.32
2022-12-20T19:18:44.421Z,9.00
2022-12-20T19:21:17.237Z,9.15
2022-12-20T19:23:46.820Z,9.30
2022-12-20T19:26:15.467Z,9.35
2022-12-20T19:28:43.249Z,9.98
2022-12-20T19:31:30.615Z,9.63
2022-12-20T19:34:02.765Z,9.85
2022-12-20T19:36:34.256Z,9.93
2022-12-20T19:39:02.555Z,9.43
2022-12-20T19:41:32.137Z,9.98
2022-12-20T19:43:59.403Z,9.63
2022-12-20T19:46:29.710Z,10.63
2022-12-20T19:48:58.508Z,9.15
2022-12-20T19:51:26.047Z,10.65
2022-12-20T19:53:54.106Z,10.63
2022-12-20T19:56:33.471Z,10.30
2022-12-20T19:59:00.858Z,9.93
2022-12-20T20:01:28.507Z,11.32
2022-12-20T20:03:57.370Z,10.25
2022-12-20T20:06:24.841Z,10.55
2022-12-20T20:08:51.801Z,10.00
2022-12-20T20:11:19.234Z,9.98
2022-12-20T20:13:46.118Z,10.70
2022-12-20T20:16:17.000Z,11.35
2022-12-20T20:18:48.980Z,10.48
2022-12-20T20:21:20.990Z,10.95
2022-12-20T20:23:48.911Z,11.25
2022-12-20T20:26:19.761Z,11.35
2022-12-20T20:28:46.533Z,10.98
2022-12-20T20:31:15.493Z,12.40
2022-12-20T20:33:43.276Z,11.60
2022-12-20T20:36:14.279Z,11.20
2022-12-20T20:38:41.202Z,11.98
2022-12-20T20:41:08.493Z,13.13
2022-12-20T20:43:36.752Z,11.50
2022-12-20T20:46:05.841Z,12.15
2022-12-20T20:48:32.621Z,12.45
2022-12-20T20:50:59.519Z,12.18
2022-12-20T20:53:32.754Z,12.10
2022-12-20T20:56:00.526Z,12.82
2022-12-20T20:58:27.353Z,12.13
2022-12-20T21:00:59.124Z,12.93
2022-12-20T21:03:27.324Z,12.70
2022-12-20T21:08:41.115Z,12.50
2022-12-20T21:11:08.631Z,14.13
2022-12-20T21:13:35.852Z,13.65
2022-12-20T21:16:10.830Z,12.77
2022-12-20T21:18:37.991Z,13.20
2022-12-20T21:21:12.759Z,14.02
2022-12-20T21:23:43.381Z,13.80
2022-12-20T21:26:10.059Z,13.57
2022-12-20T21:28:36.831Z,14.38
2022-12-20T21:31:05.734Z,13.73
2022-12-20T21:33:32.821Z,12.95
2022-12-20T21:36:14.459Z,14.38
2022-12-20T21:38:41.646Z,13.73
2022-12-20T21:41:12.331Z,14.10
2022-12-20T21:43:41.226Z,13.80
2022-12-20T21:46:11.295Z,14.93
2022-12-20T21:48:43.245Z,14.63
2022-12-20T21:51:13.961Z,15.02
2022-12-20T21:53:49.343Z,15.70
2022-12-20T21:56:16.792Z,14.18
2022-12-20T21:58:44.644Z,15.02
2022-12-20T22:01:16.785Z,13.65
2022-12-20T22:03:44.489Z,15.68
2022-12-20T22:06:12.375Z,15.68
2022-12-20T22:08:39.040Z,14.65
2022-12-20T22:11:09.616Z,15.63
2022-12-20T22:13:41.583Z,14.93
2022-12-20T22:18:40.707Z,15.60
2022-12-20T22:21:12.700Z,16.67
2022-12-20T22:23:40.254Z,16.73
2022-12-20T22:26:09.631Z,17.73
2022-12-20T22:28:37.285Z,18.55
2022-12-20T22:31:08.862Z,17.77
2022-12-20T22:33:37.294Z,15.67
2022-12-20T22:36:04.279Z,18.05
2022-12-20T22:38:31.235Z,17.58
2022-12-20T22:41:22.491Z,17.67
2022-12-20T22:43:49.532Z,16.98
2022-12-20T22:46:17.900Z,18.20
2022-12-20T22:48:45.833Z,19.05
2022-12-20T22:51:16.057Z,17.85
2022-12-20T22:53:43.269Z,17.65
2022-12-20T22:56:10.592Z,18.33
2022-12-20T22:58:38.661Z,17.85
2022-12-20T23:01:08.223Z,16.67
2022-12-20T23:03:36.384Z,16.25
2022-12-20T23:06:05.527Z,16.33
2022-12-20T23:08:35.154Z,15.85
2022-12-20T23:11:21.192Z,16.52
2022-12-20T23:14:06.803Z,16.27
2022-12-20T23:16:33.637Z,17.42
2022-12-20T23:19:01.637Z,18.50
2022-12-20T23:21:48.333Z,18.17
2022-12-20T23:24:15.702Z,20.35
2022-12-20T23:26:43.282Z,19.02
2022-12-20T23:29:10.913Z,20.20
2022-12-20T23:31:37.721Z,19.00
2022-12-20T23:34:04.529Z,19.15
2022-12-20T23:36:33.270Z,17.58
2022-12-20T23:39:00.651Z,18.77
2022-12-20T23:41:27.742Z,18.67
2022-12-20T23:43:54.470Z,20.05
2022-12-20T23:46:24.515Z,18.88
2022-12-20T23:48:52.476Z,18.42
2022-12-20T23:51:20.510Z,18.98
2022-12-20T23:53:47.534Z,17.42
2022-12-20T23:56:19.869Z,18.50
2022-12-20T23:58:54.399Z,17.73
